sensor_id;sensor_type;location;lat;lon;timestamp;temperature;humidity
27506;DHT22;14939;43.596;1.320;2023-05-15T00:01:15;12.10;99.90
27506;DHT22;14939;43.596;1.320;2023-05-15T00:03:41;12.10;99.90
27506;DHT22;14939;43.596;1.320;2023-05-15T00:06:07;12.20;99.90
27506;DHT22;14939;43.596;1.320;2023-05-15T00:08:33;12.20;99.90
27506;DHT22;14939;43.596;1.320;2023-05-15T00:10:59;12.10;99.90
27506;DHT22;14939;43.596;1.320;2023-05-15T00:13:25;12.20;99.90
27506;DHT22;14939;43.596;1.320;2023-05-15T00:15:51;12.20;99.90
27506;DHT22;14939;43.596;1.320;2023-05-15T00:18:17;12.20;99.90
27506;DHT22;14939;43.596;1.320;2023-05-15T00:20:42;12.20;99.90
27506;DHT22;14939;43.596;1.320;2023-05-15T00:23:08;12.30;99.90
27506;DHT22;14939;43.596;1.320;2023-05-15T00:25:34;12.30;99.90
27506;DHT22;14939;43.596;1.320;2023-05-15T00:28:00;12.40;99.90
27506;DHT22;14939;43.596;1.320;2023-05-15T00:30:27;12.50;99.90
27506;DHT22;14939;43.596;1.320;2023-05-15T00:32:52;12.50;99.90
27506;DHT22;14939;43.596;1.320;2023-05-15T00:35:18;12.50;99.90
27506;DHT22;14939;43.596;1.320;2023-05-15T00:37:44;12.40;99.90
27506;DHT22;14939;43.596;1.320;2023-05-15T00:40:10;12.50;99.90
27506;DHT22;14939;43.596;1.320;2023-05-15T00:42:37;12.50;99.90
27506;DHT22;14939;43.596;1.320;2023-05-15T00:45:05;12.50;99.90
27506;DHT22;14939;43.596;1.320;2023-05-15T00:47:33;12.50;99.90
27506;DHT22;14939;43.596;1.320;2023-05-15T00:50:00;12.50;99.90
27506;DHT22;14939;43.596;1.320;2023-05-15T00:52:26;12.50;99.90
27506;DHT22;14939;43.596;1.320;2023-05-15T00:54:52;12.50;99.90
27506;DHT22;14939;43.596;1.320;2023-05-15T00:57:19;12.50;99.90
27506;DHT22;14939;43.596;1.320;2023-05-15T00:59:47;12.50;99.90
27506;DHT22;14939;43.596;1.320;2023-05-15T01:02:14;12.50;99.90
27506;DHT22;14939;43.596;1.320;2023-05-15T01:04:42;12.50;99.90
27506;DHT22;14939;43.596;1.320;2023-05-15T01:07:08;12.40;99.90
27506;DHT22;14939;43.596;1.320;2023-05-15T01:09:35;12.40;99.90
27506;DHT22;14939;43.596;1.320;2023-05-15T01:12:01;12.30;99.90
27506;DHT22;14939;43.596;1.320;2023-05-15T01:14:28;12.30;99.90
27506;DHT22;14939;43.596;1.320;2023-05-15T01:16:54;12.40;99.90
27506;DHT22;14939;43.596;1.320;2023-05-15T01:19:20;12.30;99.90
27506;DHT22;14939;43.596;1.320;2023-05-15T01:22:10;12.30;99.90
27506;DHT22;14939;43.596;1.320;2023-05-15T01:27:53;12.30;99.90
27506;DHT22;14939;43.596;1.320;2023-05-15T01:30:32;12.30;99.90
27506;DHT22;14939;43.596;1.320;2023-05-15T01:40:36;12.30;99.90
27506;DHT22;14939;43.596;1.320;2023-05-15T01:43:07;12.30;99.90
27506;DHT22;14939;43.596;1.320;2023-05-15T01:45:35;12.20;99.90
27506;DHT22;14939;43.596;1.320;2023-05-15T01:48:06;12.20;99.90
27506;DHT22;14939;43.596;1.320;2023-05-15T01:50:44;12.20;99.90
27506;DHT22;14939;43.596;1.320;2023-05-15T01:53:10;12.30;99.90
27506;DHT22;14939;43.596;1.320;2023-05-15T01:55:38;12.30;99.90
27506;DHT22;14939;43.596;1.320;2023-05-15T01:58:04;12.30;99.90
27506;DHT22;14939;43.596;1.320;2023-05-15T02:00:32;12.30;99.90
27506;DHT22;14939;43.596;1.320;2023-05-15T02:02:58;12.30;99.90
27506;DHT22;14939;43.596;1.320;2023-05-15T02:05:25;12.30;99.90
27506;DHT22;14939;43.596;1.320;2023-05-15T02:07:52;12.30;99.90
27506;DHT22;14939;43.596;1.320;2023-05-15T02:10:18;12.40;99.90
27506;DHT22;14939;43.596;1.320;2023-05-15T02:12:44;12.40;99.90
27506;DHT22;14939;43.596;1.320;2023-05-15T02:15:11;12.40;99.90
27506;DHT22;14939;43.596;1.320;2023-05-15T02:17:37;12.40;99.90
27506;DHT22;14939;43.596;1.320;2023-05-15T02:20:04;12.40;99.90
27506;DHT22;14939;43.596;1.320;2023-05-15T02:22:32;12.40;99.90
27506;DHT22;14939;43.596;1.320;2023-05-15T02:24:58;12.40;99.90
27506;DHT22;14939;43.596;1.320;2023-05-15T02:27:27;12.40;99.90
27506;DHT22;14939;43.596;1.320;2023-05-15T02:38:09;12.30;99.90
27506;DHT22;14939;43.596;1.320;2023-05-15T02:40:36;12.40;99.90
27506;DHT22;14939;43.596;1.320;2023-05-15T02:43:04;12.30;99.90
27506;DHT22;14939;43.596;1.320;2023-05-15T02:45:30;12.30;99.90
27506;DHT22;14939;43.596;1.320;2023-05-15T02:47:56;12.30;99.90
27506;DHT22;14939;43.596;1.320;2023-05-15T02:50:23;12.40;99.90
27506;DHT22;14939;43.596;1.320;2023-05-15T02:52:49;12.40;99.90
27506;DHT22;14939;43.596;1.320;2023-05-15T02:55:14;12.30;99.90
27506;DHT22;14939;43.596;1.320;2023-05-15T02:57:40;12.40;99.90
27506;DHT22;14939;43.596;1.320;2023-05-15T03:00:06;12.30;99.90
27506;DHT22;14939;43.596;1.320;2023-05-15T03:02:37;12.30;99.90
27506;DHT22;14939;43.596;1.320;2023-05-15T03:05:04;12.30;99.90
27506;DHT22;14939;43.596;1.320;2023-05-15T03:07:30;12.30;99.90
27506;DHT22;14939;43.596;1.320;2023-05-15T03:09:56;12.30;99.90
27506;DHT22;14939;43.596;1.320;2023-05-15T03:12:21;12.30;99.90
27506;DHT22;14939;43.596;1.320;2023-05-15T03:14:47;12.30;99.90
27506;DHT22;14939;43.596;1.320;2023-05-15T03:17:25;12.40;99.90
27506;DHT22;14939;43.596;1.320;2023-05-15T03:19:51;12.40;99.90
27506;DHT22;14939;43.596;1.320;2023-05-15T03:22:16;12.40;99.90
27506;DHT22;14939;43.596;1.320;2023-05-15T03:24:42;12.40;99.90
27506;DHT22;14939;43.596;1.320;2023-05-15T03:27:07;12.40;99.90
27506;DHT22;14939;43.596;1.320;2023-05-15T03:29:33;12.50;99.90
27506;DHT22;14939;43.596;1.320;2023-05-15T03:31:59;12.50;99.90
27506;DHT22;14939;43.596;1.320;2023-05-15T03:34:24;12.50;99.90
27506;DHT22;14939;43.596;1.320;2023-05-15T03:36:50;12.50;99.90
27506;DHT22;14939;43.596;1.320;2023-05-15T03:39:16;12.50;99.90
27506;DHT22;14939;43.596;1.320;2023-05-15T03:41:41;12.50;99.90
27506;DHT22;14939;43.596;1.320;2023-05-15T03:44:07;12.50;99.90
27506;DHT22;14939;43.596;1.320;2023-05-15T03:46:33;12.50;99.90
27506;DHT22;14939;43.596;1.320;2023-05-15T03:48:58;12.50;99.90
27506;DHT22;14939;43.596;1.320;2023-05-15T03:51:24;12.50;99.90
27506;DHT22;14939;43.596;1.320;2023-05-15T03:53:50;12.50;99.90
27506;DHT22;14939;43.596;1.320;2023-05-15T03:56:15;12.60;99.90
27506;DHT22;14939;43.596;1.320;2023-05-15T03:58:41;12.60;99.90
27506;DHT22;14939;43.596;1.320;2023-05-15T04:01:07;12.60;99.90
27506;DHT22;14939;43.596;1.320;2023-05-15T04:03:33;12.60;99.90
27506;DHT22;14939;43.596;1.320;2023-05-15T04:05:58;12.60;99.90
27506;DHT22;14939;43.596;1.320;2023-05-15T04:08:24;12.70;99.90
27506;DHT22;14939;43.596;1.320;2023-05-15T04:10:49;12.60;99.90
27506;DHT22;14939;43.596;1.320;2023-05-15T04:13:16;12.70;99.90
27506;DHT22;14939;43.596;1.320;2023-05-15T04:15:42;12.70;99.90
27506;DHT22;14939;43.596;1.320;2023-05-15T04:18:07;12.70;99.90
27506;DHT22;14939;43.596;1.320;2023-05-15T04:20:33;12.70;99.90
27506;DHT22;14939;43.596;1.320;2023-05-15T04:22:59;12.70;99.90
27506;DHT22;14939;43.596;1.320;2023-05-15T04:25:25;12.70;99.90
27506;DHT22;14939;43.596;1.320;2023-05-15T04:27:51;12.70;99.90
27506;DHT22;14939;43.596;1.320;2023-05-15T04:30:17;12.70;99.90
27506;DHT22;14939;43.596;1.320;2023-05-15T04:32:43;12.70;99.90
27506;DHT22;14939;43.596;1.320;2023-05-15T04:35:09;12.60;99.90
27506;DHT22;14939;43.596;1.320;2023-05-15T04:37:40;12.60;99.90
27506;DHT22;14939;43.596;1.320;2023-05-15T04:40:07;12.60;99.90
27506;DHT22;14939;43.596;1.320;2023-05-15T04:42:33;12.70;99.90
27506;DHT22;14939;43.596;1.320;2023-05-15T04:44:59;12.70;99.90
27506;DHT22;14939;43.596;1.320;2023-05-15T04:47:25;12.70;99.90
27506;DHT22;14939;43.596;1.320;2023-05-15T04:49:50;12.70;99.90
27506;DHT22;14939;43.596;1.320;2023-05-15T04:52:16;12.70;99.90
27506;DHT22;14939;43.596;1.320;2023-05-15T04:54:42;12.80;99.90
27506;DHT22;14939;43.596;1.320;2023-05-15T04:57:08;12.80;99.90
27506;DHT22;14939;43.596;1.320;2023-05-15T04:59:34;12.80;99.90
27506;DHT22;14939;43.596;1.320;2023-05-15T05:02:00;12.80;99.90
27506;DHT22;14939;43.596;1.320;2023-05-15T05:04:26;12.80;99.90
27506;DHT22;14939;43.596;1.320;2023-05-15T05:06:52;12.80;99.90
27506;DHT22;14939;43.596;1.320;2023-05-15T05:09:18;12.80;99.90
27506;DHT22;14939;43.596;1.320;2023-05-15T05:11:45;12.80;99.90
27506;DHT22;14939;43.596;1.320;2023-05-15T05:14:11;12.80;99.90
27506;DHT22;14939;43.596;1.320;2023-05-15T05:16:37;12.80;99.90
27506;DHT22;14939;43.596;1.320;2023-05-15T05:19:04;12.90;99.90
27506;DHT22;14939;43.596;1.320;2023-05-15T05:21:30;12.80;99.90
27506;DHT22;14939;43.596;1.320;2023-05-15T05:23:56;12.90;99.90
27506;DHT22;14939;43.596;1.320;2023-05-15T05:26:22;12.90;99.90
27506;DHT22;14939;43.596;1.320;2023-05-15T05:28:47;12.90;99.90
27506;DHT22;14939;43.596;1.320;2023-05-15T05:31:13;12.90;99.90
27506;DHT22;14939;43.596;1.320;2023-05-15T05:33:39;12.90;99.90
27506;DHT22;14939;43.596;1.320;2023-05-15T05:36:06;12.90;99.90
27506;DHT22;14939;43.596;1.320;2023-05-15T05:38:32;12.80;99.90
27506;DHT22;14939;43.596;1.320;2023-05-15T05:40:58;12.70;99.90
27506;DHT22;14939;43.596;1.320;2023-05-15T05:43:26;12.50;99.90
27506;DHT22;14939;43.596;1.320;2023-05-15T05:45:52;12.50;99.90
27506;DHT22;14939;43.596;1.320;2023-05-15T05:48:18;12.50;99.90
27506;DHT22;14939;43.596;1.320;2023-05-15T05:50:44;12.40;99.90
27506;DHT22;14939;43.596;1.320;2023-05-15T05:53:09;12.50;99.90
27506;DHT22;14939;43.596;1.320;2023-05-15T05:55:35;12.40;99.90
27506;DHT22;14939;43.596;1.320;2023-05-15T05:58:02;12.50;99.90
27506;DHT22;14939;43.596;1.320;2023-05-15T06:00:27;12.30;99.90
27506;DHT22;14939;43.596;1.320;2023-05-15T06:02:58;12.20;99.90
27506;DHT22;14939;43.596;1.320;2023-05-15T06:05:24;12.20;99.90
27506;DHT22;14939;43.596;1.320;2023-05-15T06:07:51;12.20;99.90
27506;DHT22;14939;43.596;1.320;2023-05-15T06:10:17;12.20;99.90
27506;DHT22;14939;43.596;1.320;2023-05-15T06:12:43;12.20;99.90
27506;DHT22;14939;43.596;1.320;2023-05-15T06:15:10;12.20;99.90
27506;DHT22;14939;43.596;1.320;2023-05-15T06:17:36;12.30;99.90
27506;DHT22;14939;43.596;1.320;2023-05-15T06:20:04;12.30;99.90
27506;DHT22;14939;43.596;1.320;2023-05-15T06:22:32;12.30;99.90
27506;DHT22;14939;43.596;1.320;2023-05-15T06:24:58;12.30;99.90
27506;DHT22;14939;43.596;1.320;2023-05-15T06:27:24;12.30;99.90
27506;DHT22;14939;43.596;1.320;2023-05-15T06:29:51;12.40;99.90
27506;DHT22;14939;43.596;1.320;2023-05-15T06:32:17;12.40;99.90
27506;DHT22;14939;43.596;1.320;2023-05-15T06:34:42;12.40;99.90
27506;DHT22;14939;43.596;1.320;2023-05-15T06:37:08;12.40;99.90
27506;DHT22;14939;43.596;1.320;2023-05-15T06:39:34;12.40;99.90
27506;DHT22;14939;43.596;1.320;2023-05-15T06:42:00;12.40;99.90
27506;DHT22;14939;43.596;1.320;2023-05-15T06:44:29;12.40;99.90
27506;DHT22;14939;43.596;1.320;2023-05-15T06:46:55;12.40;99.90
27506;DHT22;14939;43.596;1.320;2023-05-15T06:49:22;12.50;99.90
27506;DHT22;14939;43.596;1.320;2023-05-15T06:51:48;12.50;99.90
27506;DHT22;14939;43.596;1.320;2023-05-15T06:54:14;12.50;99.90
27506;DHT22;14939;43.596;1.320;2023-05-15T06:56:40;12.60;99.90
27506;DHT22;14939;43.596;1.320;2023-05-15T06:59:05;12.60;99.90
27506;DHT22;14939;43.596;1.320;2023-05-15T07:01:31;12.70;99.90
27506;DHT22;14939;43.596;1.320;2023-05-15T07:03:57;12.70;99.90
27506;DHT22;14939;43.596;1.320;2023-05-15T07:06:22;12.80;99.90
27506;DHT22;14939;43.596;1.320;2023-05-15T07:08:50;12.90;99.90
27506;DHT22;14939;43.596;1.320;2023-05-15T07:11:16;13.00;99.90
27506;DHT22;14939;43.596;1.320;2023-05-15T07:13:41;13.10;99.90
27506;DHT22;14939;43.596;1.320;2023-05-15T07:16:07;13.10;99.90
27506;DHT22;14939;43.596;1.320;2023-05-15T07:18:33;13.20;99.90
27506;DHT22;14939;43.596;1.320;2023-05-15T07:20:58;13.20;99.90
27506;DHT22;14939;43.596;1.320;2023-05-15T07:23:24;13.30;99.90
27506;DHT22;14939;43.596;1.320;2023-05-15T07:25:54;13.40;99.90
27506;DHT22;14939;43.596;1.320;2023-05-15T07:28:20;13.40;99.90
27506;DHT22;14939;43.596;1.320;2023-05-15T07:30:46;13.40;99.90
27506;DHT22;14939;43.596;1.320;2023-05-15T07:33:11;13.50;99.90
27506;DHT22;14939;43.596;1.320;2023-05-15T07:35:37;13.50;99.90
27506;DHT22;14939;43.596;1.320;2023-05-15T07:38:03;13.60;99.90
27506;DHT22;14939;43.596;1.320;2023-05-15T07:40:29;13.70;99.90
27506;DHT22;14939;43.596;1.320;2023-05-15T07:42:55;13.80;99.90
27506;DHT22;14939;43.596;1.320;2023-05-15T07:45:20;13.80;99.90
27506;DHT22;14939;43.596;1.320;2023-05-15T07:47:48;13.80;99.90
27506;DHT22;14939;43.596;1.320;2023-05-15T07:50:14;13.90;99.90
27506;DHT22;14939;43.596;1.320;2023-05-15T07:52:40;13.90;99.90
27506;DHT22;14939;43.596;1.320;2023-05-15T07:55:08;14.00;99.90
27506;DHT22;14939;43.596;1.320;2023-05-15T07:57:34;14.10;99.90
27506;DHT22;14939;43.596;1.320;2023-05-15T08:00:00;14.20;99.90
27506;DHT22;14939;43.596;1.320;2023-05-15T08:02:31;14.40;99.90
27506;DHT22;14939;43.596;1.320;2023-05-15T08:04:57;14.50;99.90
27506;DHT22;14939;43.596;1.320;2023-05-15T08:07:23;14.40;99.90
27506;DHT22;14939;43.596;1.320;2023-05-15T08:09:48;14.50;99.90
27506;DHT22;14939;43.596;1.320;2023-05-15T08:12:18;14.70;99.90
27506;DHT22;14939;43.596;1.320;2023-05-15T08:14:49;14.60;99.90
27506;DHT22;14939;43.596;1.320;2023-05-15T08:17:15;14.60;99.90
27506;DHT22;14939;43.596;1.320;2023-05-15T08:19:41;14.70;99.90
27506;DHT22;14939;43.596;1.320;2023-05-15T08:22:06;14.70;99.90
27506;DHT22;14939;43.596;1.320;2023-05-15T08:24:33;14.90;99.90
27506;DHT22;14939;43.596;1.320;2023-05-15T08:26:58;14.90;99.20
27506;DHT22;14939;43.596;1.320;2023-05-15T08:29:24;15.10;99.30
27506;DHT22;14939;43.596;1.320;2023-05-15T08:31:50;15.20;96.70
27506;DHT22;14939;43.596;1.320;2023-05-15T08:34:16;15.20;96.40
27506;DHT22;14939;43.596;1.320;2023-05-15T08:36:42;15.10;96.40
27506;DHT22;14939;43.596;1.320;2023-05-15T08:39:09;15.30;97.40
27506;DHT22;14939;43.596;1.320;2023-05-15T08:41:43;15.30;95.80
27506;DHT22;14939;43.596;1.320;2023-05-15T08:44:12;15.60;94.80
27506;DHT22;14939;43.596;1.320;2023-05-15T08:46:39;15.70;95.60
27506;DHT22;14939;43.596;1.320;2023-05-15T08:49:13;15.80;94.40
27506;DHT22;14939;43.596;1.320;2023-05-15T08:51:40;16.00;91.70
27506;DHT22;14939;43.596;1.320;2023-05-15T08:54:07;15.70;92.90
27506;DHT22;14939;43.596;1.320;2023-05-15T08:56:34;15.90;92.30
27506;DHT22;14939;43.596;1.320;2023-05-15T08:58:59;16.10;92.70
27506;DHT22;14939;43.596;1.320;2023-05-15T09:01:26;16.00;91.40
27506;DHT22;14939;43.596;1.320;2023-05-15T09:03:52;16.00;91.90
27506;DHT22;14939;43.596;1.320;2023-05-15T09:06:18;16.30;91.00
27506;DHT22;14939;43.596;1.320;2023-05-15T09:08:45;16.20;92.20
27506;DHT22;14939;43.596;1.320;2023-05-15T09:11:12;16.40;90.10
27506;DHT22;14939;43.596;1.320;2023-05-15T09:13:38;16.40;87.20
27506;DHT22;14939;43.596;1.320;2023-05-15T09:16:04;16.10;89.70
27506;DHT22;14939;43.596;1.320;2023-05-15T09:18:31;16.00;90.20
27506;DHT22;14939;43.596;1.320;2023-05-15T09:21:20;15.80;90.30
27506;DHT22;14939;43.596;1.320;2023-05-15T09:23:46;15.70;91.40
27506;DHT22;14939;43.596;1.320;2023-05-15T09:26:12;15.70;91.50
27506;DHT22;14939;43.596;1.320;2023-05-15T09:28:38;15.50;91.20
27506;DHT22;14939;43.596;1.320;2023-05-15T09:31:04;15.70;91.30
27506;DHT22;14939;43.596;1.320;2023-05-15T09:33:33;15.90;90.90
27506;DHT22;14939;43.596;1.320;2023-05-15T09:36:00;16.10;88.70
27506;DHT22;14939;43.596;1.320;2023-05-15T09:38:26;16.30;87.50
27506;DHT22;14939;43.596;1.320;2023-05-15T09:41:06;16.00;89.20
27506;DHT22;14939;43.596;1.320;2023-05-15T09:43:39;15.40;92.20
27506;DHT22;14939;43.596;1.320;2023-05-15T09:46:06;15.40;91.60
27506;DHT22;14939;43.596;1.320;2023-05-15T09:48:33;15.60;90.70
27506;DHT22;14939;43.596;1.320;2023-05-15T09:50:59;15.90;90.50
27506;DHT22;14939;43.596;1.320;2023-05-15T09:53:27;16.30;88.70
27506;DHT22;14939;43.596;1.320;2023-05-15T09:55:53;16.40;85.70
27506;DHT22;14939;43.596;1.320;2023-05-15T09:58:19;16.70;86.90
27506;DHT22;14939;43.596;1.320;2023-05-15T10:00:46;16.70;85.20
27506;DHT22;14939;43.596;1.320;2023-05-15T10:03:12;16.70;83.30
27506;DHT22;14939;43.596;1.320;2023-05-15T10:05:39;16.80;84.10
27506;DHT22;14939;43.596;1.320;2023-05-15T10:08:05;17.00;82.10
27506;DHT22;14939;43.596;1.320;2023-05-15T10:10:31;16.50;82.30
27506;DHT22;14939;43.596;1.320;2023-05-15T10:12:59;16.40;84.80
27506;DHT22;14939;43.596;1.320;2023-05-15T10:15:26;16.90;83.70
27506;DHT22;14939;43.596;1.320;2023-05-15T10:17:53;16.70;80.30
27506;DHT22;14939;43.596;1.320;2023-05-15T10:20:21;17.10;79.20
27506;DHT22;14939;43.596;1.320;2023-05-15T10:22:49;17.10;79.80
27506;DHT22;14939;43.596;1.320;2023-05-15T10:25:44;16.80;80.10
27506;DHT22;14939;43.596;1.320;2023-05-15T10:28:15;16.50;80.90
27506;DHT22;14939;43.596;1.320;2023-05-15T10:30:42;17.00;79.20
27506;DHT22;14939;43.596;1.320;2023-05-15T10:33:09;17.20;76.00
27506;DHT22;14939;43.596;1.320;2023-05-15T10:35:38;16.80;78.60
27506;DHT22;14939;43.596;1.320;2023-05-15T10:38:04;16.50;78.40
27506;DHT22;14939;43.596;1.320;2023-05-15T10:40:32;16.60;79.90
27506;DHT22;14939;43.596;1.320;2023-05-15T10:42:58;16.80;77.60
27506;DHT22;14939;43.596;1.320;2023-05-15T10:45:26;16.70;79.10
27506;DHT22;14939;43.596;1.320;2023-05-15T10:47:53;17.10;76.60
27506;DHT22;14939;43.596;1.320;2023-05-15T10:50:19;17.30;74.90
27506;DHT22;14939;43.596;1.320;2023-05-15T10:52:44;17.30;72.70
27506;DHT22;14939;43.596;1.320;2023-05-15T10:55:16;17.20;72.90
27506;DHT22;14939;43.596;1.320;2023-05-15T10:57:44;17.40;73.90
27506;DHT22;14939;43.596;1.320;2023-05-15T11:02:48;17.40;69.10
27506;DHT22;14939;43.596;1.320;2023-05-15T11:05:14;17.60;69.10
27506;DHT22;14939;43.596;1.320;2023-05-15T11:07:40;17.40;68.80
27506;DHT22;14939;43.596;1.320;2023-05-15T11:13:01;17.10;70.40
27506;DHT22;14939;43.596;1.320;2023-05-15T11:15:40;17.10;73.20
27506;DHT22;14939;43.596;1.320;2023-05-15T11:18:07;17.20;70.10
27506;DHT22;14939;43.596;1.320;2023-05-15T11:23:21;17.80;67.60
27506;DHT22;14939;43.596;1.320;2023-05-15T11:25:52;17.90;66.60
27506;DHT22;14939;43.596;1.320;2023-05-15T11:28:23;18.40;61.60
27506;DHT22;14939;43.596;1.320;2023-05-15T11:30:51;18.20;60.50
27506;DHT22;14939;43.596;1.320;2023-05-15T11:33:19;17.60;66.50
27506;DHT22;14939;43.596;1.320;2023-05-15T11:35:57;17.60;69.30
27506;DHT22;14939;43.596;1.320;2023-05-15T11:38:23;17.80;66.20
27506;DHT22;14939;43.596;1.320;2023-05-15T11:40:58;17.70;63.00
27506;DHT22;14939;43.596;1.320;2023-05-15T11:43:31;17.90;63.20
27506;DHT22;14939;43.596;1.320;2023-05-15T11:46:00;17.80;65.20
27506;DHT22;14939;43.596;1.320;2023-05-15T11:48:38;18.10;63.00
27506;DHT22;14939;43.596;1.320;2023-05-15T11:51:05;17.80;62.50
27506;DHT22;14939;43.596;1.320;2023-05-15T11:53:38;17.90;62.50
27506;DHT22;14939;43.596;1.320;2023-05-15T11:56:04;17.80;63.50
27506;DHT22;14939;43.596;1.320;2023-05-15T11:58:30;18.00;62.70
27506;DHT22;14939;43.596;1.320;2023-05-15T12:00:56;18.20;61.10
27506;DHT22;14939;43.596;1.320;2023-05-15T12:03:24;18.00;62.30
27506;DHT22;14939;43.596;1.320;2023-05-15T12:05:51;18.30;63.80
27506;DHT22;14939;43.596;1.320;2023-05-15T12:08:19;18.20;62.10
27506;DHT22;14939;43.596;1.320;2023-05-15T12:10:46;18.10;63.90
27506;DHT22;14939;43.596;1.320;2023-05-15T12:13:13;18.10;62.80
27506;DHT22;14939;43.596;1.320;2023-05-15T12:15:44;18.60;62.00
27506;DHT22;14939;43.596;1.320;2023-05-15T12:18:11;18.60;59.80
27506;DHT22;14939;43.596;1.320;2023-05-15T12:20:39;18.70;59.10
27506;DHT22;14939;43.596;1.320;2023-05-15T12:23:06;18.40;61.90
27506;DHT22;14939;43.596;1.320;2023-05-15T12:25:34;18.10;60.80
27506;DHT22;14939;43.596;1.320;2023-05-15T12:28:01;17.90;61.50
27506;DHT22;14939;43.596;1.320;2023-05-15T12:30:30;17.80;60.30
27506;DHT22;14939;43.596;1.320;2023-05-15T12:33:02;17.70;61.30
27506;DHT22;14939;43.596;1.320;2023-05-15T12:35:28;17.80;60.20
27506;DHT22;14939;43.596;1.320;2023-05-15T12:37:54;17.70;61.60
27506;DHT22;14939;43.596;1.320;2023-05-15T12:40:22;17.40;60.80
27506;DHT22;14939;43.596;1.320;2023-05-15T12:42:52;17.70;63.60
27506;DHT22;14939;43.596;1.320;2023-05-15T12:45:20;18.10;62.10
27506;DHT22;14939;43.596;1.320;2023-05-15T12:47:47;18.20;60.00
27506;DHT22;14939;43.596;1.320;2023-05-15T12:50:18;18.10;59.90
27506;DHT22;14939;43.596;1.320;2023-05-15T12:52:59;18.20;59.10
27506;DHT22;14939;43.596;1.320;2023-05-15T12:55:33;18.70;56.40
27506;DHT22;14939;43.596;1.320;2023-05-15T12:58:06;19.20;54.30
27506;DHT22;14939;43.596;1.320;2023-05-15T13:00:37;18.90;55.20
27506;DHT22;14939;43.596;1.320;2023-05-15T13:03:04;18.00;59.10
27506;DHT22;14939;43.596;1.320;2023-05-15T13:05:36;15.40;94.30
27506;DHT22;14939;43.596;1.320;2023-05-15T13:08:03;15.70;99.90
27506;DHT22;14939;43.596;1.320;2023-05-15T13:10:34;15.80;99.40
27506;DHT22;14939;43.596;1.320;2023-05-15T13:13:00;16.10;99.90
27506;DHT22;14939;43.596;1.320;2023-05-15T13:15:31;16.50;90.50
27506;DHT22;14939;43.596;1.320;2023-05-15T13:18:00;17.10;94.00
27506;DHT22;14939;43.596;1.320;2023-05-15T13:20:28;17.30;82.30
27506;DHT22;14939;43.596;1.320;2023-05-15T13:22:54;17.50;90.70
27506;DHT22;14939;43.596;1.320;2023-05-15T13:25:20;17.90;71.90
27506;DHT22;14939;43.596;1.320;2023-05-15T13:27:47;18.70;69.20
27506;DHT22;14939;43.596;1.320;2023-05-15T13:30:13;19.10;68.70
27506;DHT22;14939;43.596;1.320;2023-05-15T13:32:39;19.20;60.50
27506;DHT22;14939;43.596;1.320;2023-05-15T13:35:05;19.30;53.10
27506;DHT22;14939;43.596;1.320;2023-05-15T13:37:31;19.30;53.50
27506;DHT22;14939;43.596;1.320;2023-05-15T13:39:57;19.40;48.70
27506;DHT22;14939;43.596;1.320;2023-05-15T13:42:22;19.40;49.60
27506;DHT22;14939;43.596;1.320;2023-05-15T13:44:48;19.20;49.90
27506;DHT22;14939;43.596;1.320;2023-05-15T13:47:14;19.40;48.80
27506;DHT22;14939;43.596;1.320;2023-05-15T13:49:39;19.40;50.10
27506;DHT22;14939;43.596;1.320;2023-05-15T13:52:06;19.60;49.60
27506;DHT22;14939;43.596;1.320;2023-05-15T13:54:31;20.10;48.10
27506;DHT22;14939;43.596;1.320;2023-05-15T13:56:57;20.20;45.50
27506;DHT22;14939;43.596;1.320;2023-05-15T13:59:23;20.20;46.40
27506;DHT22;14939;43.596;1.320;2023-05-15T14:01:48;19.90;47.20
27506;DHT22;14939;43.596;1.320;2023-05-15T14:04:14;19.70;42.40
27506;DHT22;14939;43.596;1.320;2023-05-15T14:06:40;19.90;39.80
27506;DHT22;14939;43.596;1.320;2023-05-15T14:09:05;19.80;40.80
27506;DHT22;14939;43.596;1.320;2023-05-15T14:11:32;19.80;41.40
27506;DHT22;14939;43.596;1.320;2023-05-15T14:13:58;20.00;41.90
27506;DHT22;14939;43.596;1.320;2023-05-15T14:16:23;19.80;41.70
27506;DHT22;14939;43.596;1.320;2023-05-15T14:18:49;20.00;42.60
27506;DHT22;14939;43.596;1.320;2023-05-15T14:21:14;20.10;41.70
27506;DHT22;14939;43.596;1.320;2023-05-15T14:23:40;20.10;42.70
27506;DHT22;14939;43.596;1.320;2023-05-15T14:26:06;20.30;43.10
27506;DHT22;14939;43.596;1.320;2023-05-15T14:28:32;20.40;42.60
27506;DHT22;14939;43.596;1.320;2023-05-15T14:30:58;20.10;41.20
27506;DHT22;14939;43.596;1.320;2023-05-15T14:33:24;19.90;35.60
27506;DHT22;14939;43.596;1.320;2023-05-15T14:35:51;20.00;36.90
27506;DHT22;14939;43.596;1.320;2023-05-15T14:38:17;20.00;38.80
27506;DHT22;14939;43.596;1.320;2023-05-15T14:40:43;19.80;40.60
27506;DHT22;14939;43.596;1.320;2023-05-15T14:43:09;19.90;41.60
27506;DHT22;14939;43.596;1.320;2023-05-15T14:45:34;20.00;40.20
27506;DHT22;14939;43.596;1.320;2023-05-15T14:48:00;20.20;40.10
27506;DHT22;14939;43.596;1.320;2023-05-15T14:50:26;20.70;41.20
27506;DHT22;14939;43.596;1.320;2023-05-15T14:52:52;22.80;35.80
27506;DHT22;14939;43.596;1.320;2023-05-15T14:55:18;24.10;32.60
27506;DHT22;14939;43.596;1.320;2023-05-15T14:57:48;25.60;28.60
27506;DHT22;14939;43.596;1.320;2023-05-15T15:00:16;22.60;33.40
27506;DHT22;14939;43.596;1.320;2023-05-15T15:02:42;22.30;35.70
27506;DHT22;14939;43.596;1.320;2023-05-15T15:05:08;21.40;38.50
27506;DHT22;14939;43.596;1.320;2023-05-15T15:08:00;20.90;39.40
27506;DHT22;14939;43.596;1.320;2023-05-15T15:10:26;21.10;37.40
27506;DHT22;14939;43.596;1.320;2023-05-15T15:12:52;23.00;31.90
27506;DHT22;14939;43.596;1.320;2023-05-15T15:15:19;25.30;28.30
27506;DHT22;14939;43.596;1.320;2023-05-15T15:17:45;25.60;27.40
27506;DHT22;14939;43.596;1.320;2023-05-15T15:20:11;25.80;26.80
27506;DHT22;14939;43.596;1.320;2023-05-15T15:22:37;25.20;28.40
27506;DHT22;14939;43.596;1.320;2023-05-15T15:25:05;25.80;26.80
27506;DHT22;14939;43.596;1.320;2023-05-15T15:27:31;26.10;26.50
27506;DHT22;14939;43.596;1.320;2023-05-15T15:29:57;25.30;26.20
27506;DHT22;14939;43.596;1.320;2023-05-15T15:32:23;24.50;28.10
27506;DHT22;14939;43.596;1.320;2023-05-15T15:34:48;24.40;27.50
27506;DHT22;14939;43.596;1.320;2023-05-15T15:37:14;24.80;26.50
27506;DHT22;14939;43.596;1.320;2023-05-15T15:39:40;24.20;26.70
27506;DHT22;14939;43.596;1.320;2023-05-15T15:42:05;24.00;26.70
27506;DHT22;14939;43.596;1.320;2023-05-15T15:44:34;24.20;26.90
27506;DHT22;14939;43.596;1.320;2023-05-15T15:47:00;24.50;26.70
27506;DHT22;14939;43.596;1.320;2023-05-15T15:49:30;24.30;25.90
27506;DHT22;14939;43.596;1.320;2023-05-15T15:51:56;25.60;23.80
27506;DHT22;14939;43.596;1.320;2023-05-15T15:54:21;24.00;24.30
27506;DHT22;14939;43.596;1.320;2023-05-15T15:56:47;23.50;26.00